Time;durP1;ratioP1;P1;durP2;ratioP2;P2;SDS_P1;SDS_P2;PMS_P1;PMS_P2;Temp;Humidity;BMP_temperature;BMP_pressure;BME280_temperature;BME280_humidity;BME280_pressure;Samples;Min_cycle;Max_cycle;Signal;HPM_P1;HPM_P2
2023/01/10 00:02:01;;;;;;;3.43;1.80;;;;;;;4.33;100.00;60274.75;6292279;28;20232;-71
2023/01/10 00:05:03;;;;;;;2.90;2.30;;;;;;;4.34;100.00;60274.75;6297733;28;20235;-71
2023/01/10 00:08:07;;;;;;;5.53;2.53;;;;;;;-144.22;100.00;60274.75;6286945;28;20227;-71
2023/01/10 00:14:32;;;;;;;3.23;2.17;;;;;;;4.37;100.00;60274.75;6263083;28;20247;-71
2023/01/10 00:17:34;;;;;;;4.37;2.23;;;;;;;-144.22;100.00;60274.75;6290775;28;20231;-72
2023/01/10 00:20:36;;;;;;;3.97;2.53;;;;;;;4.37;100.00;60274.75;6288738;28;20705;-71
2023/01/10 00:23:38;;;;;;;4.20;2.63;;;;;;;-144.22;100.00;60274.75;6288852;28;20219;-71
2023/01/10 00:26:40;;;;;;;3.03;2.30;;;;;;;4.55;100.00;60274.75;6287321;28;20241;-72
2023/01/10 00:29:45;;;;;;;5.00;2.50;;;;;;;-144.22;100.00;60274.75;6290793;28;20230;-71
2023/01/10 00:32:47;;;;;;;4.30;3.13;;;;;;;4.54;100.00;60274.75;6271752;28;20239;-71
2023/01/10 00:35:50;;;;;;;6.53;2.73;;;;;;;-144.22;100.00;60274.75;6288594;28;20234;-70
2023/01/10 00:38:52;;;;;;;4.33;2.70;;;;;;;4.55;100.00;60274.75;6289951;28;20234;-70
2023/01/10 00:45:15;;;;;;;4.80;2.93;;;;;;;4.21;100.00;78304.09;6291480;28;20589;-70
2023/01/10 00:48:17;;;;;;;4.47;2.70;;;;;;;4.19;100.00;78303.06;6281720;28;20406;-70
2023/01/10 00:51:19;;;;;;;3.73;2.70;;;;;;;-144.22;100.00;60274.75;6287027;28;20633;-70
2023/01/10 00:54:21;;;;;;;5.23;2.90;;;;;;;-144.22;100.00;60274.75;6289551;28;20604;-70
2023/01/10 00:57:23;;;;;;;5.17;3.10;;;;;;;-144.22;100.00;60274.75;6290783;28;20318;-70
2023/01/10 01:00:25;;;;;;;5.27;2.80;;;;;;;-144.22;100.00;60274.75;6286205;28;20235;-71
2023/01/10 01:03:27;;;;;;;5.83;2.93;;;;;;;-144.22;100.00;60274.75;6294121;28;20862;-70
2023/01/10 01:06:30;;;;;;;8.33;3.10;;;;;;;-144.22;100.00;60274.75;6276043;28;20239;-71
2023/01/10 01:09:31;;;;;;;3.97;2.87;;;;;;;-144.22;100.00;60274.75;6272210;28;20233;-70
2023/01/10 01:12:33;;;;;;;4.67;2.83;;;;;;;-144.22;100.00;60274.75;6290793;28;20238;-70
2023/01/10 01:15:36;;;;;;;4.40;2.70;;;;;;;-144.22;100.00;60274.75;6292502;28;20229;-70
2023/01/10 01:18:38;;;;;;;5.17;2.77;;;;;;;3.99;100.00;60274.75;6290717;28;20229;-70
2023/01/10 01:21:40;;;;;;;2.93;2.60;;;;;;;3.98;100.00;60274.75;6290195;28;20230;-70
2023/01/10 01:24:42;;;;;;;5.60;3.70;;;;;;;3.95;100.00;60274.75;6272394;28;20326;-70
2023/01/10 01:27:44;;;;;;;3.97;2.63;;;;;;;-144.22;100.00;60274.75;6273990;28;20231;-70
2023/01/10 01:30:47;;;;;;;5.20;2.70;;;;;;;3.96;100.00;60274.75;6290774;28;20245;-70
2023/01/10 01:33:50;;;;;;;4.23;2.70;;;;;;;3.96;100.00;60274.75;6291686;28;20313;-70
2023/01/10 01:36:52;;;;;;;5.40;3.30;;;;;;;3.96;100.00;60274.75;6293172;28;20290;-70
2023/01/10 01:39:54;;;;;;;5.13;2.50;;;;;;;3.98;100.00;60274.75;6289802;28;20317;-70
2023/01/10 01:42:56;;;;;;;4.03;2.50;;;;;;;3.97;100.00;60274.75;6290373;28;20279;-70
2023/01/10 01:46:02;;;;;;;3.73;2.80;;;;;;;3.95;100.00;60274.75;6290538;28;20290;-71
2023/01/10 01:49:13;;;;;;;2.73;2.40;;;;;;;3.98;100.00;60274.75;6271344;28;20797;-70
2023/01/10 01:52:24;;;;;;;6.10;2.63;;;;;;;-144.22;100.00;60274.75;6289050;28;20641;-70
2023/01/10 01:55:30;;;;;;;2.97;2.00;;;;;;;3.89;100.00;60274.75;6289549;28;20234;-70
2023/01/10 01:58:40;;;;;;;3.07;2.50;;;;;;;3.87;100.00;60274.75;6270703;28;20241;-70
2023/01/10 02:01:46;;;;;;;3.00;2.10;;;;;;;-144.22;100.00;60274.75;6273172;28;20613;-70
2023/01/10 02:05:09;;;;;;;3.37;2.27;;;;;;;3.88;100.00;60274.75;6292481;28;20216;-70
2023/01/10 02:08:12;;;;;;;2.67;2.20;;;;;;;3.86;100.00;60274.75;6289237;28;20227;-70
2023/01/10 02:11:15;;;;;;;5.33;2.97;;;;;;;-144.22;100.00;60274.75;6273670;28;20370;-70
2023/01/10 02:14:19;;;;;;;3.80;2.73;;;;;;;3.87;100.00;60274.75;6283130;27;20224;-68
2023/01/10 02:17:21;;;;;;;3.83;2.27;;;;;;;3.84;100.00;60274.75;6310245;27;20258;-70
2023/01/10 02:20:23;;;;;;;2.90;2.00;;;;;;;3.84;100.00;60274.75;6291209;28;20697;-70
2023/01/10 02:23:51;;;;;;;3.93;2.27;;;;;;;3.84;100.00;60274.75;6272259;28;20237;-70
2023/01/10 02:26:56;;;;;;;1.90;1.80;;;;;;;3.79;100.00;60274.75;6293586;28;20271;-69
2023/01/10 02:30:13;;;;;;;3.53;2.07;;;;;;;3.82;100.00;60274.75;6277854;28;20283;-70
2023/01/10 02:33:22;;;;;;;2.63;2.20;;;;;;;-144.22;100.00;60274.75;6289715;28;20226;-70
2023/01/10 02:36:59;;;;;;;2.17;1.77;;;;;;;3.81;100.00;60274.75;6287941;28;20233;-70
2023/01/10 02:40:12;;;;;;;2.60;1.93;;;;;;;3.80;100.00;60274.75;6279666;28;20231;-69
2023/01/10 02:43:21;;;;;;;3.23;2.00;;;;;;;-144.22;100.00;60274.75;6286885;28;20370;-70
2023/01/10 02:46:27;;;;;;;4.73;2.30;;;;;;;3.74;100.00;60274.75;6291295;28;20825;-69
2023/01/10 02:49:29;;;;;;;2.43;1.90;;;;;;;-144.22;100.00;60274.75;6270217;28;20311;-69
2023/01/10 02:52:31;;;;;;;2.27;2.07;;;;;;;3.70;100.00;60274.75;6282784;28;20777;-70
2023/01/10 02:55:40;;;;;;;2.43;2.17;;;;;;;3.72;100.00;60274.75;6288201;28;20264;-69
2023/01/10 02:58:55;;;;;;;3.63;1.80;;;;;;;3.71;100.00;60274.75;6271966;28;20625;-70
2023/01/10 03:02:40;;;;;;;4.70;2.23;;;;;;;3.69;100.00;60274.75;6276120;28;20306;-69
2023/01/10 03:06:34;;;;;;;6.83;2.03;;;;;;;3.68;100.00;60274.75;6289986;28;20325;-70
2023/01/10 03:09:49;;;;;;;4.73;2.03;;;;;;;3.68;100.00;60274.75;6217807;28;20598;-69
2023/01/10 03:13:06;;;;;;;3.30;1.90;;;;;;;3.67;100.00;60274.75;6293285;28;20372;-70
2023/01/10 03:16:14;;;;;;;2.10;1.67;;;;;;;3.66;100.00;60274.75;6291856;28;20702;-69
2023/01/10 03:19:20;;;;;;;2.23;2.03;;;;;;;-144.22;100.00;60274.75;6295273;28;20689;-70
2023/01/10 03:22:24;;;;;;;3.40;1.80;;;;;;;4.87;100.00;60274.75;6278960;28;20285;-70
2023/01/10 03:25:33;;;;;;;5.67;2.23;;;;;;;3.65;100.00;60274.75;6292315;28;20276;-70
2023/01/10 03:28:47;;;;;;;3.13;1.80;;;;;;;3.61;100.00;60274.75;6291576;28;20741;-70
2023/01/10 03:31:55;;;;;;;2.67;1.97;;;;;;;3.59;100.00;60274.75;6291405;28;20226;-70
2023/01/10 03:34:59;;;;;;;3.67;1.83;;;;;;;-144.22;100.00;60274.75;6277709;28;20228;-70
2023/01/10 03:38:18;;;;;;;2.30;2.00;;;;;;;3.57;100.00;60274.75;6294488;28;20305;-70
2023/01/10 03:41:36;;;;;;;2.43;2.00;;;;;;;-144.22;100.00;60274.75;6291998;28;20231;-69
2023/01/10 03:44:56;;;;;;;4.27;2.53;;;;;;;3.48;100.00;60274.75;6293499;28;20551;-69
2023/01/10 03:48:02;;;;;;;3.47;2.30;;;;;;;-144.22;100.00;60274.75;6289544;28;20226;-69
2023/01/10 03:51:06;;;;;;;2.30;2.10;;;;;;;-144.22;100.00;60274.75;6290417;28;20256;-69
2023/01/10 03:54:08;;;;;;;3.93;2.27;;;;;;;3.45;100.00;60274.75;6293172;28;20215;-70
2023/01/10 03:57:22;;;;;;;4.17;2.10;;;;;;;-144.22;100.00;60274.75;6289785;28;20745;-69
2023/01/10 04:00:24;;;;;;;3.17;2.33;;;;;;;3.41;100.00;60274.75;6279159;28;20222;-69
2023/01/10 04:03:26;;;;;;;3.53;2.13;;;;;;;3.45;100.00;60274.75;6292373;28;20744;-69
2023/01/10 04:06:29;;;;;;;2.23;1.87;;;;;;;3.44;100.00;60274.75;6274437;28;20522;-70
2023/01/10 04:09:31;;;;;;;2.47;1.90;;;;;;;3.43;100.00;60274.75;6292206;28;20225;-69
2023/01/10 04:12:33;;;;;;;2.33;1.90;;;;;;;-144.22;100.00;60274.75;6274370;28;20232;-70
2023/01/10 04:15:35;;;;;;;2.50;2.17;;;;;;;3.41;100.00;60274.75;6288958;28;20233;-69
2023/01/10 04:18:37;;;;;;;2.70;2.33;;;;;;;-144.22;100.00;60274.75;6289174;28;20252;-70
2023/01/10 04:21:39;;;;;;;4.57;2.30;;;;;;;3.37;100.00;60274.75;6291755;28;20273;-69
2023/01/10 04:24:43;;;;;;;3.30;2.77;;;;;;;3.37;100.00;60274.75;6288629;28;20250;-69
2023/01/10 04:27:45;;;;;;;2.53;2.33;;;;;;;-144.22;100.00;60274.75;6279965;28;20230;-69
2023/01/10 04:30:47;;;;;;;2.60;2.40;;;;;;;3.32;100.00;60274.75;6291095;28;20218;-69
2023/01/10 04:33:49;;;;;;;2.67;2.37;;;;;;;-144.22;100.00;60274.75;6288883;28;20228;-69
2023/01/10 04:36:51;;;;;;;4.80;3.23;;;;;;;3.37;100.00;60274.75;6274726;28;20238;-70
2023/01/10 04:39:53;;;;;;;2.87;2.63;;;;;;;-144.22;100.00;60274.75;6272634;28;20238;-70
2023/01/10 04:42:55;;;;;;;2.90;2.70;;;;;;;-144.22;100.00;60274.75;6269503;28;20264;-69
2023/01/10 04:45:57;;;;;;;2.80;2.30;;;;;;;3.33;100.00;60274.75;6274235;28;20739;-69
2023/01/10 04:48:59;;;;;;;3.43;3.03;;;;;;;3.32;100.00;60274.75;6317622;28;20248;-68
2023/01/10 04:52:01;;;;;;;2.90;2.63;;;;;;;3.33;100.00;60274.75;6294474;28;20766;-69
2023/01/10 04:55:03;;;;;;;2.83;2.63;;;;;;;3.37;100.00;60274.75;6294792;28;20241;-70
2023/01/10 04:58:05;;;;;;;3.40;3.10;;;;;;;3.32;100.00;60274.75;6278188;28;20368;-70
2023/01/10 05:01:13;;;;;;;2.90;2.70;;;;;;;3.32;100.00;60274.75;6265487;28;20230;-69
2023/01/10 05:04:15;;;;;;;2.87;2.67;;;;;;;3.36;100.00;60274.75;6269063;28;20823;-69
2023/01/10 05:07:19;;;;;;;2.83;2.60;;;;;;;3.34;100.00;60274.75;6291503;28;20234;-69
2023/01/10 05:10:21;;;;;;;3.13;2.83;;;;;;;3.34;100.00;60274.75;6286799;28;20751;-70
2023/01/10 05:13:24;;;;;;;3.40;3.10;;;;;;;3.37;100.00;60274.75;6283182;28;20728;-70
2023/01/10 05:16:27;;;;;;;3.03;2.83;;;;;;;-144.22;100.00;60274.75;6268680;28;20317;-70
2023/01/10 05:19:29;;;;;;;3.00;2.80;;;;;;;3.40;100.00;60274.75;6288600;28;20251;-70
2023/01/10 05:22:31;;;;;;;3.33;2.97;;;;;;;3.39;100.00;60274.75;6289346;28;20792;-70
2023/01/10 05:25:33;;;;;;;4.30;3.30;;;;;;;3.37;100.00;60274.75;6289479;28;20383;-70
2023/01/10 05:28:36;;;;;;;3.67;3.03;;;;;;;3.36;100.00;60274.75;6268970;28;20242;-70
2023/01/10 05:31:38;;;;;;;4.30;3.27;;;;;;;3.30;100.00;60274.75;6268286;28;20729;-69
2023/01/10 05:34:41;;;;;;;3.53;3.10;;;;;;;3.30;100.00;60274.75;6290683;28;20230;-70
2023/01/10 05:37:43;;;;;;;3.40;3.10;;;;;;;3.32;100.00;60274.75;6287797;28;20238;-70
2023/01/10 05:40:45;;;;;;;3.90;3.30;;;;;;;-144.22;100.00;60274.75;6271767;28;20221;-69
2023/01/10 05:43:47;;;;;;;3.53;3.23;;;;;;;3.34;100.00;60274.75;6289590;28;20225;-69
2023/01/10 05:46:49;;;;;;;3.87;3.40;;;;;;;3.34;100.00;60274.75;6288626;28;20325;-69
2023/01/10 05:49:51;;;;;;;4.67;3.93;;;;;;;3.34;100.00;60274.75;6289604;28;20244;-69
2023/01/10 05:52:53;;;;;;;4.07;3.67;;;;;;;3.32;100.00;60274.75;6289221;28;20628;-70
2023/01/10 05:55:57;;;;;;;3.67;3.37;;;;;;;3.37;100.00;60274.75;6274357;28;20636;-71
2023/01/10 05:58:59;;;;;;;3.90;3.50;;;;;;;3.42;100.00;60274.75;6275644;28;20230;-70
2023/01/10 06:02:22;;;;;;;4.03;3.50;;;;;;;-144.22;100.00;60274.75;6288869;28;20739;-70
2023/01/10 06:05:24;;;;;;;3.80;3.20;;;;;;;3.39;100.00;60274.75;6296912;28;20229;-70
2023/01/10 06:08:26;;;;;;;4.53;3.63;;;;;;;3.39;100.00;60274.75;6272478;28;20232;-70
2023/01/10 06:11:28;;;;;;;3.80;3.43;;;;;;;3.41;100.00;60274.75;6291248;28;20222;-70
2023/01/10 06:14:30;;;;;;;3.40;3.10;;;;;;;-144.22;100.00;60274.75;6290511;28;20309;-70
2023/01/10 06:17:33;;;;;;;4.50;3.60;;;;;;;3.39;100.00;60274.75;6292400;28;20730;-69
2023/01/10 06:20:35;;;;;;;4.60;4.20;;;;;;;3.32;100.00;60274.75;6275817;28;20376;-69
2023/01/10 06:23:38;;;;;;;4.23;3.70;;;;;;;-144.22;100.00;60274.75;6292008;28;20232;-69
2023/01/10 06:26:40;;;;;;;3.97;3.43;;;;;;;-144.22;100.00;60274.75;6290504;28;20801;-69
2023/01/10 06:29:42;;;;;;;4.20;3.80;;;;;;;3.33;100.00;60274.75;6290650;28;20236;-69
2023/01/10 06:32:44;;;;;;;4.47;4.07;;;;;;;-144.22;100.00;60274.75;6273579;28;20232;-69
2023/01/10 06:35:47;;;;;;;4.17;3.77;;;;;;;-144.22;100.00;60274.75;6287914;28;20234;-69
2023/01/10 06:38:49;;;;;;;4.17;3.77;;;;;;;3.35;100.00;60274.75;6291365;28;20226;-69
2023/01/10 06:41:51;;;;;;;4.07;3.70;;;;;;;-144.22;100.00;60274.75;6289372;28;20230;-70
2023/01/10 06:44:53;;;;;;;3.97;3.57;;;;;;;-144.22;100.00;60274.75;6290179;28;20721;-69
2023/01/10 06:47:55;;;;;;;4.10;3.70;;;;;;;3.42;100.00;60274.75;6294263;28;20284;-70
2023/01/10 06:50:57;;;;;;;3.97;3.57;;;;;;;-144.22;100.00;60274.75;6295187;28;20233;-69
2023/01/10 06:53:59;;;;;;;6.23;3.83;;;;;;;-144.22;100.00;60274.75;6275569;28;20243;-70
2023/01/10 06:57:01;;;;;;;5.00;3.47;;;;;;;3.43;100.00;60274.75;6275570;28;20709;-71
2023/01/10 07:00:08;;;;;;;4.00;3.60;;;;;;;-144.22;100.00;60274.75;6275287;28;20318;-70
2023/01/10 07:03:10;;;;;;;4.13;3.70;;;;;;;-144.22;100.00;60274.75;6292974;28;20678;-70
2023/01/10 07:06:12;;;;;;;3.70;3.40;;;;;;;-144.22;100.00;60274.75;6297971;28;20234;-70
2023/01/10 07:09:15;;;;;;;3.63;3.33;;;;;;;3.57;100.00;60274.75;6275743;28;20223;-71
2023/01/10 07:12:17;;;;;;;3.33;3.03;;;;;;;4.22;100.00;60274.75;6293656;28;20222;-71
2023/01/10 07:15:19;;;;;;;3.27;2.87;;;;;;;-144.22;100.00;60274.75;6275182;28;20673;-72
2023/01/10 07:18:21;;;;;;;3.37;3.07;;;;;;;-144.22;100.00;60274.75;6298518;27;20247;-68
2023/01/10 07:21:23;;;;;;;3.73;3.30;;;;;;;-144.22;100.00;60274.75;6321442;27;20218;-71
2023/01/10 07:24:25;;;;;;;3.80;3.40;;;;;;;-144.22;100.00;60274.75;6276715;28;21037;-71
2023/01/10 07:27:30;;;;;;;3.83;3.37;;;;;;;-144.22;100.00;60274.75;6290134;28;20582;-70
2023/01/10 07:30:33;;;;;;;4.03;3.50;;;;;;;3.68;100.00;60274.75;6276384;28;20374;-70
2023/01/10 07:33:35;;;;;;;3.77;2.90;;;;;;;-144.22;100.00;60274.75;6276795;28;20615;-70
2023/01/10 07:36:37;;;;;;;3.30;3.00;;;;;;;4.87;100.00;60274.75;6293537;28;20226;-71
2023/01/10 07:39:41;;;;;;;5.37;3.53;;;;;;;-144.22;100.00;60274.75;6271719;28;20248;-70
2023/01/10 07:42:43;;;;;;;4.13;3.10;;;;;;;-144.22;100.00;60274.75;6292508;28;20214;-70
2023/01/10 07:45:45;;;;;;;4.43;3.50;;;;;;;-144.22;100.00;60274.75;6271807;28;20227;-70
2023/01/10 07:48:48;;;;;;;4.10;3.40;;;;;;;-144.22;100.00;60274.75;6275738;28;20305;-70
2023/01/10 07:51:50;;;;;;;3.80;3.50;;;;;;;4.87;100.00;60274.75;6294457;28;20268;-70
2023/01/10 07:54:52;;;;;;;4.83;3.70;;;;;;;4.14;100.00;60274.75;6297579;28;20212;-70
2023/01/10 07:57:55;;;;;;;4.17;3.77;;;;;;;-144.22;100.00;60274.75;6291455;28;20713;-69
2023/01/10 08:01:02;;;;;;;4.10;3.70;;;;;;;3.72;100.00;60274.75;6290465;28;20225;-69
2023/01/10 08:04:04;;;;;;;4.73;3.77;;;;;;;3.71;100.00;60274.75;6293693;28;20251;-70
2023/01/10 08:07:06;;;;;;;4.67;4.27;;;;;;;-144.22;100.00;60274.75;6290193;28;20295;-70
2023/01/10 08:10:09;;;;;;;3.90;3.60;;;;;;;-144.22;100.00;60274.75;6290933;28;20309;-69
2023/01/10 08:13:11;;;;;;;4.40;4.00;;;;;;;-144.22;100.00;60274.75;6291266;28;20228;-70
2023/01/10 08:16:19;;;;;;;4.13;3.73;;;;;;;11.36;100.00;60274.75;6272505;28;20321;-70
2023/01/10 08:19:21;;;;;;;6.90;4.30;;;;;;;-144.22;100.00;60274.75;6291383;28;20313;-70
2023/01/10 08:22:23;;;;;;;4.43;4.00;;;;;;;-144.22;100.00;60274.75;6273011;28;20307;-70
2023/01/10 08:25:26;;;;;;;4.57;3.67;;;;;;;3.78;100.00;60274.75;6289941;28;20716;-70
2023/01/10 08:28:28;;;;;;;4.70;3.87;;;;;;;-144.22;100.00;60274.75;6291461;28;20246;-70
2023/01/10 08:31:30;;;;;;;4.53;3.60;;;;;;;-144.22;100.00;60274.75;6289564;28;20230;-71
2023/01/10 08:34:32;;;;;;;4.60;3.90;;;;;;;11.36;100.00;60274.75;6291507;28;20364;-70
2023/01/10 08:37:34;;;;;;;4.87;3.87;;;;;;;-144.22;100.00;60274.75;6290829;28;20231;-71
2023/01/10 08:40:37;;;;;;;3.97;3.27;;;;;;;-144.22;100.00;60274.75;6293544;28;20720;-70
2023/01/10 08:43:39;;;;;;;5.60;3.23;;;;;;;-144.22;100.00;60274.75;6291579;28;20371;-70
2023/01/10 08:46:41;;;;;;;3.43;3.03;;;;;;;-144.22;100.00;60274.75;6277031;28;20717;-71
2023/01/10 08:49:45;;;;;;;3.30;2.93;;;;;;;-144.22;100.00;60274.75;6273043;28;20227;-70
2023/01/10 08:52:48;;;;;;;4.23;2.90;;;;;;;-144.22;100.00;60274.75;6291617;28;20412;-70
2023/01/10 08:55:50;;;;;;;3.67;2.97;;;;;;;-144.22;100.00;60274.75;6297235;28;20279;-72
2023/01/10 08:58:52;;;;;;;2.60;2.40;;;;;;;-144.22;100.00;60274.75;6295991;28;20308;-71
2023/01/10 09:01:57;;;;;;;5.10;2.70;;;;;;;-144.22;100.00;60274.75;6300833;28;20602;-70
2023/01/10 09:04:59;;;;;;;3.93;2.77;;;;;;;-144.22;100.00;60274.75;6278126;28;20222;-68
2023/01/10 09:08:03;;;;;;;2.93;2.60;;;;;;;11.36;100.00;60274.75;6287934;28;20232;-71
2023/01/10 09:11:05;;;;;;;3.43;2.87;;;;;;;-144.22;100.00;60274.75;6285324;28;20267;-71
2023/01/10 09:14:07;;;;;;;2.80;2.60;;;;;;;4.21;100.00;60274.75;6297503;28;20784;-71
2023/01/10 09:17:09;;;;;;;4.20;3.00;;;;;;;-144.22;100.00;60274.75;6290783;28;20731;-72
2023/01/10 09:20:11;;;;;;;3.47;2.70;;;;;;;4.87;100.00;60274.75;6285748;28;20226;-71
2023/01/10 09:23:18;;;;;;;4.20;3.33;;;;;;;-144.22;100.00;60274.75;6278769;28;20900;-71
2023/01/10 09:26:21;;;;;;;4.07;2.53;;;;;;;-144.22;100.00;60274.75;6289037;28;20238;-71
2023/01/10 09:29:23;;;;;;;4.00;2.90;;;;;;;4.87;100.00;60274.75;6290461;28;20268;-71
2023/01/10 09:32:25;;;;;;;4.63;3.00;;;;;;;-144.22;100.00;60274.75;6269878;28;20308;-72
2023/01/10 09:35:29;;;;;;;2.90;2.57;;;;;;;4.32;100.00;60274.75;6291095;28;20233;-71
2023/01/10 09:38:31;;;;;;;3.50;2.60;;;;;;;4.35;100.00;60274.75;6288339;28;20233;-71
2023/01/10 09:41:59;;;;;;;4.80;2.80;;;;;;;4.33;100.00;60274.75;6288368;28;20851;-72
2023/01/10 09:45:04;;;;;;;3.27;2.70;;;;;;;4.33;100.00;60274.75;6262428;28;20227;-71
2023/01/10 09:48:25;;;;;;;3.43;2.70;;;;;;;4.37;100.00;60274.75;6290749;28;20235;-71
2023/01/10 09:51:40;;;;;;;4.83;2.90;;;;;;;4.38;100.00;60274.75;6315998;27;20220;-68
2023/01/10 09:54:43;;;;;;;4.70;2.77;;;;;;;4.36;100.00;60274.75;6293514;28;20226;-71
2023/01/10 09:57:46;;;;;;;2.90;2.60;;;;;;;4.38;100.00;60274.75;6288722;28;20243;-72
2023/01/10 10:00:59;;;;;;;2.83;2.53;;;;;;;4.39;100.00;60274.75;6288085;28;20226;-71
2023/01/10 10:04:10;;;;;;;3.77;2.57;;;;;;;-144.22;100.00;60274.75;6289911;28;20225;-71
2023/01/10 10:07:14;;;;;;;3.70;2.50;;;;;;;-144.22;100.00;60274.75;6274099;28;20673;-71
2023/01/10 10:10:23;;;;;;;3.57;2.63;;;;;;;4.49;100.00;60274.75;6287172;28;20689;-71
2023/01/10 10:13:54;;;;;;;2.40;2.20;;;;;;;4.56;100.00;60274.75;6272396;28;20235;-70
2023/01/10 10:17:03;;;;;;;3.20;2.30;;;;;;;-144.22;100.00;60274.75;6289125;28;20329;-72
2023/01/10 10:20:23;;;;;;;2.60;2.20;;;;;;;4.61;100.00;60274.75;6271261;28;20237;-71
2023/01/10 10:23:43;;;;;;;3.33;2.40;;;;;;;-144.22;100.00;60274.75;6294659;28;20309;-72
2023/01/10 10:27:07;;;;;;;3.40;2.33;;;;;;;11.36;100.00;60274.75;6292618;28;20237;-73
2023/01/10 10:30:22;;;;;;;3.60;2.30;;;;;;;-144.22;100.00;60274.75;6297401;28;20309;-71
2023/01/10 10:33:56;;;;;;;3.43;2.63;;;;;;;4.66;100.00;60274.75;6282107;28;20636;-72
2023/01/10 10:37:04;;;;;;;3.13;2.80;;;;;;;-144.22;100.00;60274.75;6291455;28;20234;-72
2023/01/10 10:40:12;;;;;;;3.67;2.33;;;;;;;4.70;100.00;60274.75;6292280;28;20226;-71
2023/01/10 10:43:20;;;;;;;2.50;2.30;;;;;;;4.73;100.00;60274.75;6292984;28;20787;-71
2023/01/10 10:46:24;;;;;;;2.53;2.20;;;;;;;4.78;100.00;60274.75;6297643;28;20226;-70
2023/01/10 10:49:49;;;;;;;3.37;2.43;;;;;;;4.80;100.00;60274.75;6292474;28;20226;-71
2023/01/10 10:52:51;;;;;;;3.03;2.23;;;;;;;-144.22;100.00;60274.75;6270464;28;20235;-71
2023/01/10 10:55:53;;;;;;;2.67;2.13;;;;;;;4.81;100.00;60274.75;6290348;28;20702;-71
2023/01/10 10:58:58;;;;;;;2.30;2.10;;;;;;;4.81;100.00;60274.75;6263563;28;20343;-71
2023/01/10 11:02:00;;;;;;;3.37;2.30;;;;;;;-144.22;100.00;60274.75;6291361;28;20725;-71
2023/01/10 11:05:06;;;;;;;2.50;2.10;;;;;;;-144.22;100.00;60274.75;6266057;28;20232;-71
2023/01/10 11:08:12;;;;;;;2.60;2.40;;;;;;;4.94;100.00;60274.75;6289235;28;20236;-71
2023/01/10 11:11:28;;;;;;;2.83;2.20;;;;;;;-144.22;100.00;60274.75;6290539;28;20573;-72
2023/01/10 11:14:45;;;;;;;2.97;1.90;;;;;;;-144.22;100.00;60274.75;6289942;28;20784;-72
2023/01/10 11:18:04;;;;;;;3.13;2.17;;;;;;;5.02;100.00;60274.75;6274978;28;20292;-70
2023/01/10 11:21:14;;;;;;;3.27;2.13;;;;;;;-144.22;100.00;60274.75;6274083;28;20239;-71
2023/01/10 11:24:41;;;;;;;3.30;2.03;;;;;;;5.02;100.00;60274.75;6292675;28;20220;-71
2023/01/10 11:27:50;;;;;;;2.63;2.00;;;;;;;-144.22;100.00;60274.75;6293622;28;20234;-72
2023/01/10 11:30:53;;;;;;;2.17;1.90;;;;;;;-144.22;100.00;60274.75;6291620;28;20241;-71
2023/01/10 11:33:56;;;;;;;2.20;1.90;;;;;;;5.15;100.00;60274.75;6291571;28;20214;-71
2023/01/10 11:36:59;;;;;;;2.77;1.97;;;;;;;-144.22;100.00;60274.75;6294391;28;20369;-71
2023/01/10 11:40:22;;;;;;;4.07;1.93;;;;;;;5.15;100.00;60274.75;6273643;28;20289;-72
2023/01/10 11:43:34;;;;;;;2.50;1.90;;;;;;;-144.22;100.00;60274.75;6291186;28;20251;-72
2023/01/10 11:46:41;;;;;;;1.80;1.57;;;;;;;-144.22;100.00;60274.75;6262813;28;20399;-71
2023/01/10 11:49:43;;;;;;;2.37;2.17;;;;;;;-144.22;100.00;60274.75;6292877;28;20265;-71
2023/01/10 11:52:47;;;;;;;4.67;2.00;;;;;;;5.45;100.00;60274.75;6292233;28;20578;-71
2023/01/10 11:55:49;;;;;;;2.27;1.70;;;;;;;-144.22;100.00;60274.75;6277174;28;20220;-69
2023/01/10 11:58:52;;;;;;;3.10;2.17;;;;;;;5.54;100.00;78567.00;6291432;28;20235;-71
2023/01/10 12:02:13;;;;;;;1.90;1.50;;;;;;;5.46;100.00;60274.75;6291845;28;20258;-71
2023/01/10 12:05:22;;;;;;;3.07;1.63;;;;;;;-144.22;100.00;60274.75;6295154;28;20246;-70
2023/01/10 12:08:41;;;;;;;2.37;1.80;;;;;;;5.44;100.00;60274.75;6291941;28;20228;-70
2023/01/10 12:11:43;;;;;;;2.27;1.63;;;;;;;-144.22;100.00;60274.75;6290082;28;20247;-72
2023/01/10 12:14:45;;;;;;;2.93;2.07;;;;;;;-144.22;100.00;60274.75;6292739;28;20223;-71
2023/01/10 12:17:48;;;;;;;2.27;1.73;;;;;;;5.73;100.00;60274.75;6291772;28;20229;-71
2023/01/10 12:20:51;;;;;;;1.67;1.30;;;;;;;-144.22;100.00;60274.75;6292910;28;20615;-70
2023/01/10 12:23:58;;;;;;;2.07;1.40;;;;;;;6.07;100.00;60274.75;6279134;28;20213;-67
2023/01/10 12:27:04;;;;;;;2.90;1.23;;;;;;;-144.22;100.00;60274.75;6299926;27;20256;-70
2023/01/10 12:30:15;;;;;;;2.47;1.40;;;;;;;-144.22;100.00;60274.75;6292098;28;20599;-70
2023/01/10 12:33:23;;;;;;;1.17;1.00;;;;;;;-144.22;100.00;60274.75;6290731;28;20224;-71
2023/01/10 12:36:53;;;;;;;3.43;1.20;;;;;;;-144.22;100.00;60274.75;6291248;28;20229;-71
2023/01/10 12:40:03;;;;;;;1.93;1.37;;;;;;;-144.22;100.00;60274.75;6291045;28;20245;-71
2023/01/10 12:47:06;;;;;;;2.50;1.00;;;;;;;-144.22;100.00;60274.75;6274045;28;20385;-70
2023/01/10 12:50:16;;;;;;;1.57;1.10;;;;;;;188.01;100.00;60274.75;6266963;28;20778;-70
2023/01/10 12:53:34;;;;;;;1.50;0.83;;;;;;;-144.22;100.00;60274.75;6287663;28;20336;-71
2023/01/10 12:56:38;;;;;;;1.17;1.07;;;;;;;7.33;100.00;60274.75;6269781;28;20225;-69
2023/01/10 12:59:43;;;;;;;1.10;0.87;;;;;;;-144.22;100.00;60274.75;6286244;28;20224;-70
2023/01/10 13:02:47;;;;;;;1.30;1.00;;;;;;;-144.22;100.00;60274.75;6287588;28;20849;-72
2023/01/10 13:05:51;;;;;;;1.20;0.90;;;;;;;-144.22;100.00;60274.75;6273448;28;20224;-72
2023/01/10 13:08:56;;;;;;;1.13;1.03;;;;;;;-144.22;100.00;60274.75;6289994;28;20707;-70
2023/01/10 13:12:09;;;;;;;1.00;0.80;;;;;;;-144.22;100.00;60274.75;6269551;28;20256;-70
2023/01/10 13:15:24;;;;;;;1.00;0.87;;;;;;;8.27;100.00;60274.75;6269762;28;20733;-70
2023/01/10 13:18:29;;;;;;;2.50;1.27;;;;;;;-144.22;100.00;60274.75;6273767;28;20655;-69
2023/01/10 13:21:33;;;;;;;1.40;0.90;;;;;;;-144.22;100.00;60274.75;6289879;28;20280;-71
2023/01/10 13:24:35;;;;;;;1.23;1.10;;;;;;;6.25;100.00;60274.75;6271952;28;20601;-70
2023/01/10 13:27:37;;;;;;;1.43;1.00;;;;;;;-144.22;100.00;60274.75;6285424;28;20602;-70
2023/01/10 13:30:40;;;;;;;0.83;0.80;;;;;;;6.06;100.00;60274.75;6276060;28;20725;-69
2023/01/10 13:33:45;;;;;;;0.73;0.73;;;;;;;-144.22;100.00;60274.75;6291162;28;20444;-71
2023/01/10 13:36:56;;;;;;;1.33;0.80;;;;;;;188.01;100.00;60274.75;6271599;28;20335;-70
2023/01/10 13:40:00;;;;;;;2.87;0.90;;;;;;;-144.22;100.00;60274.75;6285973;28;20222;-70
2023/01/10 13:43:56;;;;;;;1.53;0.77;;;;;;;-144.22;100.00;60274.75;6273785;28;20307;-70
2023/01/10 13:46:58;;;;;;;0.73;0.73;;;;;;;5.75;100.00;60274.75;6295032;28;20241;-70
2023/01/10 13:50:00;;;;;;;1.63;0.80;;;;;;;-144.22;100.00;60274.75;6272839;28;20382;-70
2023/01/10 13:53:11;;;;;;;0.77;0.57;;;;;;;-144.22;100.00;60274.75;6292193;28;20712;-70
2023/01/10 13:56:32;;;;;;;1.07;0.77;;;;;;;5.56;100.00;60274.75;6270122;28;20228;-71
2023/01/10 14:03:42;;;;;;;1.10;0.80;;;;;;;-144.22;100.00;60274.75;6149626;28;20236;-70
2023/01/10 14:06:53;;;;;;;1.23;0.80;;;;;;;5.48;100.00;60274.75;6169863;28;20818;-70
2023/01/10 14:10:18;;;;;;;1.20;0.70;;;;;;;-144.22;100.00;60274.75;6285652;28;20331;-70
2023/01/10 14:13:21;;;;;;;1.47;0.80;;;;;;;5.40;100.00;60274.75;6279347;28;20233;-70
2023/01/10 14:16:30;;;;;;;1.30;0.90;;;;;;;-144.22;100.00;60274.75;6288913;28;20237;-70
2023/01/10 14:19:33;;;;;;;1.07;0.77;;;;;;;5.34;100.00;60274.75;6269850;28;20236;-70
2023/01/10 14:22:37;;;;;;;1.43;1.10;;;;;;;-144.22;100.00;60274.75;6288440;28;20275;-70
2023/01/10 14:25:40;;;;;;;1.30;0.70;;;;;;;-144.22;100.00;60274.75;6288529;28;20252;-70
2023/01/10 14:28:42;;;;;;;1.17;0.70;;;;;;;-144.22;100.00;60274.75;6270462;28;20847;-70
2023/01/10 14:31:47;;;;;;;1.70;0.77;;;;;;;-144.22;100.00;60274.75;6290352;28;20347;-70
2023/01/10 14:34:49;;;;;;;0.97;0.90;;;;;;;-144.22;100.00;60274.75;6287109;28;20237;-69
2023/01/10 14:38:01;;;;;;;1.20;0.50;;;;;;;5.20;100.00;60274.75;6289959;28;20311;-70